N32EP KFRG-23N

Flight info

Callsign N32EP
Flight time N/A
Altitude VFR
Route
Aircraft SR22/L-VGD/C

Departure

Time 2026-04-30 00:07
Airport Republic Airport (KFRG)

Arrival

Time N/A
Airport 23N
Time Latitude Longitude Altitude Speed Heading
2026-04-30 00:07 40.65245 -73.28207 1475 ft 131 kts 107°
2026-04-30 00:07 40.65006 -73.27036 1475 ft 132 kts 107°
2026-04-30 00:07 40.64763 -73.25868 1475 ft 134 kts 107°
2026-04-30 00:08 40.64517 -73.24670 1474 ft 134 kts 107°
2026-04-30 00:08 40.64272 -73.23476 1474 ft 135 kts 107°
2026-04-30 00:08 40.64029 -73.22285 1473 ft 135 kts 107°
2026-04-30 00:08 40.63789 -73.21101 1431 ft 130 kts 108°
2026-04-30 00:09 40.63571 -73.20013 1196 ft 114 kts 107°
2026-04-30 00:09 40.63411 -73.19060 977 ft 98 kts 94°
2026-04-30 00:09 40.63527 -73.18087 1005 ft 117 kts 79°
2026-04-30 00:09 40.63739 -73.17059 974 ft 117 kts 77°
2026-04-30 00:10 40.63967 -73.15987 982 ft 127 kts 77°
2026-04-30 00:10 40.64213 -73.14812 983 ft 138 kts 77°
2026-04-30 00:10 40.64472 -73.13562 977 ft 146 kts 77°
2026-04-30 00:10 40.64748 -73.12237 975 ft 151 kts 77°
2026-04-30 00:11 40.65026 -73.10886 970 ft 154 kts 77°
2026-04-30 00:11 40.65305 -73.09515 966 ft 156 kts 77°
2026-04-30 00:11 40.65587 -73.08129 963 ft 157 kts 77°
2026-04-30 00:11 40.65872 -73.06741 960 ft 155 kts 77°
2026-04-30 00:12 40.66148 -73.05406 951 ft 150 kts 77°
2026-04-30 00:12 40.66420 -73.04089 954 ft 147 kts 77°
2026-04-30 00:12 40.66967 -73.02990 943 ft 147 kts 37°
2026-04-30 00:12 40.67932 -73.02688 951 ft 144 kts 358°
2026-04-30 00:13 40.68909 -73.02939 956 ft 141 kts 347°
2026-04-30 00:13 40.69841 -73.03279 851 ft 138 kts 343°
2026-04-30 00:13 40.70698 -73.03801 749 ft 134 kts 334°
2026-04-30 00:13 40.71523 -73.04356 664 ft 130 kts 334°
2026-04-30 00:14 40.72311 -73.04904 581 ft 124 kts 328°
2026-04-30 00:14 40.72966 -73.05423 468 ft 97 kts 332°
2026-04-30 00:14 40.73557 -73.05877 459 ft 101 kts 337°
2026-04-30 00:14 40.74263 -73.06266 254 ft 123 kts 337°
2026-04-30 00:15 40.74987 -73.06673 359 ft 104 kts 335°
2026-04-30 00:15 40.75649 -73.07051 330 ft 102 kts 339°
2026-04-30 00:15 40.76307 -73.07396 310 ft 99 kts 348°
2026-04-30 00:15 40.76987 -73.07243 470 ft 107 kts 38°
2026-04-30 00:16 40.77298 -73.06392 541 ft 107 kts 80°
2026-04-30 00:16 40.77290 -73.05396 517 ft 114 kts 105°
2026-04-30 00:16 40.76785 -73.04821 497 ft 95 kts 178°
2026-04-30 00:16 40.76088 -73.04756 475 ft 104 kts 174°
2026-04-30 00:17 40.75394 -73.04900 533 ft 102 kts 214°
2026-04-30 00:17 40.75110 -73.05743 560 ft 106 kts 261°
2026-04-30 00:17 40.75079 -73.06735 550 ft 111 kts 278°
2026-04-30 00:17 40.75586 -73.07375 556 ft 110 kts 345°
2026-04-30 00:18 40.76333 -73.07638 566 ft 111 kts 346°
2026-04-30 00:18 40.77100 -73.07736 539 ft 112 kts 22°
2026-04-30 00:18 40.77533 -73.06984 561 ft 107 kts 79°
2026-04-30 00:18 40.77597 -73.05971 536 ft 110 kts 97°
2026-04-30 00:19 40.77221 -73.05177 492 ft 103 kts 168°
2026-04-30 00:19 40.76612 -73.05388 286 ft 82 kts 186°
2026-04-30 00:19 40.76059 -73.05306 37 ft 74 kts 173°
2026-04-30 00:19 40.75705 -73.05253 35 ft 21 kts 174°
2026-04-30 00:20 40.75653 -73.05287 35 ft 6 kts 236°
2026-04-30 00:20 40.75654 -73.05315 35 ft 4 kts 273°
2026-04-30 00:20 40.75673 -73.05358 35 ft 4 kts 30°
2026-04-30 00:20 40.75679 -73.05353 35 ft 0 kts 29°
2026-04-30 00:21 40.75763 -73.05321 36 ft 17 kts 356°
2026-04-30 00:21 40.75877 -73.05341 36 ft 14 kts 353°
2026-04-30 00:21 40.75959 -73.05360 36 ft 9 kts 347°
2026-04-30 00:22 40.76023 -73.05362 36 ft 9 kts 11°
2026-04-30 00:22 40.76116 -73.05335 37 ft 18 kts 15°
2026-04-30 00:22 40.76172 -73.05333 37 ft 2 kts 184°
2026-04-30 00:22 40.76171 -73.05333 37 ft 0 kts 173°
2026-04-30 00:23 40.75985 -73.05298 37 ft 63 kts 174°
2026-04-30 00:23 40.75449 -73.05240 285 ft 78 kts 171°
2026-04-30 00:23 40.74874 -73.05138 473 ft 99 kts 170°
2026-04-30 00:23 40.74088 -73.04933 544 ft 126 kts 165°
2026-04-30 00:24 40.73170 -73.04652 621 ft 143 kts 166°
2026-04-30 00:24 40.72161 -73.04384 728 ft 149 kts 169°
2026-04-30 00:24 40.71153 -73.04343 974 ft 143 kts 187°
2026-04-30 00:24 40.70229 -73.04816 1061 ft 149 kts 210°
2026-04-30 00:25 40.69351 -73.05638 1010 ft 158 kts 213°
2026-04-30 00:25 40.68438 -73.06486 901 ft 166 kts 211°
2026-04-30 00:25 40.67483 -73.07317 969 ft 159 kts 212°
2026-04-30 00:25 40.66583 -73.08137 987 ft 156 kts 213°
2026-04-30 00:26 40.65717 -73.09013 969 ft 156 kts 220°
2026-04-30 00:26 40.65138 -73.10181 972 ft 156 kts 245°
2026-04-30 00:26 40.64714 -73.11508 923 ft 155 kts 248°
2026-04-30 00:26 40.64328 -73.12804 938 ft 150 kts 248°
2026-04-30 00:27 40.64029 -73.14121 951 ft 149 kts 253°
2026-04-30 00:27 40.63782 -73.15494 984 ft 156 kts 256°
2026-04-30 00:27 40.63538 -73.16908 990 ft 159 kts 254°
2026-04-30 00:27 40.63273 -73.18312 1011 ft 160 kts 254°
2026-04-30 00:28 40.62994 -73.19762 988 ft 163 kts 254°
2026-04-30 00:28 40.62731 -73.21202 983 ft 163 kts 256°
2026-04-30 00:28 40.62519 -73.22668 981 ft 163 kts 258°
2026-04-30 00:28 40.62340 -73.24133 1001 ft 162 kts 260°
2026-04-30 00:29 40.62233 -73.25565 1110 ft 157 kts 274°
2026-04-30 00:29 40.62800 -73.26798 1021 ft 163 kts 322°
2026-04-30 00:29 40.63752 -73.27572 1024 ft 160 kts 331°
2026-04-30 00:29 40.64708 -73.28326 1020 ft 160 kts 329°
2026-04-30 00:30 40.65663 -73.29073 1016 ft 159 kts 330°
2026-04-30 00:30 40.66606 -73.29834 1022 ft 157 kts 328°
2026-04-30 00:30 40.67512 -73.30614 1046 ft 156 kts 327°
2026-04-30 00:30 40.68433 -73.31425 1041 ft 157 kts 325°
2026-04-30 00:31 40.69316 -73.32246 1020 ft 153 kts 323°
2026-04-30 00:31 40.70136 -73.33088 1020 ft 149 kts 322°
2026-04-30 00:31 40.70955 -73.33916 998 ft 148 kts 321°
2026-04-30 00:31 40.71722 -73.34824 969 ft 147 kts 314°
2026-04-30 00:32 40.72434 -73.35766 958 ft 143 kts 314°
2026-04-30 00:32 40.73144 -73.36690 947 ft 140 kts 316°
2026-04-30 00:32 40.73849 -73.37554 958 ft 138 kts 317°
2026-04-30 00:32 40.74564 -73.38397 972 ft 137 kts 319°
2026-04-30 00:33 40.75298 -73.39202 975 ft 138 kts 321°
2026-04-30 00:33 40.76044 -73.40011 982 ft 137 kts 318°
2026-04-30 00:33 40.76695 -73.40948 976 ft 138 kts 309°
2026-04-30 00:33 40.77279 -73.41952 976 ft 137 kts 304°
2026-04-30 00:34 40.77809 -73.42993 971 ft 137 kts 303°
2026-04-30 00:34 40.78381 -73.44008 971 ft 137 kts 307°
2026-04-30 00:34 40.78975 -73.44992 975 ft 137 kts 308°
2026-04-30 00:34 40.79501 -73.46028 998 ft 134 kts 291°
2026-04-30 00:35 40.79640 -73.47210 989 ft 131 kts 262°
2026-04-30 00:35 40.79340 -73.48322 1034 ft 129 kts 229°
2026-04-30 00:35 40.78683 -73.49191 1031 ft 135 kts 211°
2026-04-30 00:35 40.77821 -73.49213 1056 ft 129 kts 144°
2026-04-30 00:36 40.77273 -73.48292 1025 ft 129 kts 127°
2026-04-30 00:36 40.76715 -73.47303 1003 ft 140 kts 130°
2026-04-30 00:36 40.76159 -73.46218 954 ft 140 kts 126°
2026-04-30 00:36 40.75562 -73.45246 828 ft 127 kts 134°
2026-04-30 00:37 40.75020 -73.44438 600 ft 110 kts 133°
2026-04-30 00:37 40.74558 -73.43745 532 ft 104 kts 134°
2026-04-30 00:37 40.74051 -73.43019 379 ft 106 kts 135°
2026-04-30 00:37 40.73609 -73.42378 218 ft 86 kts 136°
2026-04-30 00:38 40.73219 -73.41818 85 ft 77 kts 137°
2026-04-30 00:38 40.72916 -73.41383 68 ft 52 kts 133°
2026-04-30 00:38 40.72555 -73.40856 176 ft 91 kts 135°
2026-04-30 00:38 40.72145 -73.40263 522 ft 92 kts 134°
2026-04-30 00:39 40.71866 -73.39407 709 ft 115 kts 85°
2026-04-30 00:39 40.72356 -73.38534 946 ft 126 kts 43°
2026-04-30 00:39 40.73159 -73.38123 1013 ft 132 kts 352°
2026-04-30 00:39 40.73941 -73.38731 1047 ft 132 kts 319°
2026-04-30 00:40 40.74607 -73.39602 1044 ft 135 kts 314°
2026-04-30 00:40 40.75209 -73.40523 1052 ft 130 kts 304°
2026-04-30 00:40 40.75706 -73.41488 997 ft 126 kts 302°
2026-04-30 00:40 40.76232 -73.42401 948 ft 122 kts 310°
2026-04-30 00:41 40.76736 -73.43256 951 ft 116 kts 288°
2026-04-30 00:41 40.76778 -73.44262 954 ft 104 kts 247°
2026-04-30 00:41 40.76324 -73.44822 950 ft 88 kts 197°
2026-04-30 00:41 40.75749 -73.45070 878 ft 82 kts 179°
2026-04-30 00:42 40.75247 -73.44696 701 ft 85 kts 141°
2026-04-30 00:42 40.74811 -73.44138 615 ft 89 kts 134°
2026-04-30 00:42 40.74398 -73.43539 478 ft 89 kts 133°
2026-04-30 00:42 40.73988 -73.42934 356 ft 88 kts 135°
2026-04-30 00:43 40.73576 -73.42329 196 ft 87 kts 135°
2026-04-30 00:43 40.73185 -73.41770 79 ft 76 kts 136°
2026-04-30 00:43 40.72892 -73.41353 68 ft 50 kts 134°
2026-04-30 00:43 40.72595 -73.40916 75 ft 88 kts 135°
2026-04-30 00:44 40.72163 -73.40308 429 ft 89 kts 133°
2026-04-30 00:44 40.71763 -73.39649 676 ft 103 kts 120°
2026-04-30 00:44 40.71787 -73.38666 938 ft 119 kts 63°
2026-04-30 00:44 40.72464 -73.37923 1024 ft 137 kts 32°
2026-04-30 00:45 40.73357 -73.37527 1061 ft 136 kts 354°
2026-04-30 00:45 40.74154 -73.38143 1046 ft 138 kts 319°
2026-04-30 00:45 40.74905 -73.38983 1011 ft 141 kts 319°
2026-04-30 00:45 40.75639 -73.39830 1030 ft 139 kts 316°
2026-04-30 00:46 40.76353 -73.40723 1010 ft 141 kts 315°
2026-04-30 00:46 40.77054 -73.41630 1000 ft 141 kts 315°
2026-04-30 00:46 40.77697 -73.42574 989 ft 138 kts 307°
2026-04-30 00:46 40.78294 -73.43580 931 ft 139 kts 307°
2026-04-30 00:47 40.78909 -73.44569 916 ft 137 kts 308°
2026-04-30 00:47 40.79473 -73.45547 957 ft 130 kts 303°
2026-04-30 00:47 40.79971 -73.46526 963 ft 128 kts 299°
2026-04-30 00:47 40.80340 -73.47570 975 ft 123 kts 274°
2026-04-30 00:48 40.80061 -73.48542 935 ft 117 kts 217°
2026-04-30 00:48 40.79408 -73.49232 876 ft 122 kts 217°
2026-04-30 00:48 40.78687 -73.49580 967 ft 111 kts 156°
2026-04-30 00:48 40.78098 -73.48870 931 ft 119 kts 136°
2026-04-30 00:49 40.77513 -73.48062 909 ft 125 kts 134°
2026-04-30 00:49 40.76930 -73.47177 889 ft 127 kts 133°
2026-04-30 00:49 40.76340 -73.46316 839 ft 125 kts 134°
2026-04-30 00:49 40.75757 -73.45489 761 ft 126 kts 135°
2026-04-30 00:50 40.75124 -73.44585 652 ft 129 kts 135°
2026-04-30 00:50 40.74584 -73.43799 554 ft 99 kts 135°
2026-04-30 00:50 40.74174 -73.43188 428 ft 81 kts 136°
2026-04-30 00:50 40.73826 -73.42693 308 ft 68 kts 136°
2026-04-30 00:51 40.73510 -73.42233 185 ft 71 kts 136°
2026-04-30 00:51 40.73170 -73.41749 73 ft 64 kts 135°
2026-04-30 00:51 40.72924 -73.41395 68 ft 42 kts 129°
2026-04-30 00:51 40.72805 -73.41329 67 ft 13 kts 181°
2026-04-30 00:52 40.72747 -73.41328 66 ft 0 kts 181°
2026-04-30 00:53 40.72748 -73.41331 66 ft 1 kts 355°
2026-04-30 00:53 40.72767 -73.41327 66 ft 0 kts 358°
2026-04-30 00:55 40.72768 -73.41327 66 ft 0 kts 358°
2026-04-30 00:55 40.72816 -73.41329 67 ft 12 kts 359°
2026-04-30 00:55 40.73097 -73.41335 70 ft 17 kts 357°
2026-04-30 00:56 40.73183 -73.41336 71 ft 12 kts
2026-04-30 00:56 40.73315 -73.41341 73 ft 24 kts 358°
2026-04-30 00:56 40.73466 -73.41349 74 ft 17 kts 344°
2026-04-30 00:56 40.73530 -73.41293 75 ft 3 kts 21°
2026-04-30 00:57 40.73532 -73.41296 75 ft 0 kts 259°
2026-04-30 01:03 40.73530 -73.41296 75 ft 0 kts 164°
2026-04-30 01:03 40.73527 -73.41293 75 ft 0 kts 148°
2026-04-30 01:03 40.73524 -73.41291 74 ft 0 kts 149°
2026-04-30 01:03 40.73520 -73.41288 74 ft 0 kts 155°